ADDS METAR Data INFO
IDs: Format: Raw Decoded Include TAF

Data at: 1231 UTC 20 Jul 2017

METAR for:LFJL (Metz/Lorraine Arpt, --, FR)
Text:LFJL 201200Z AUTO 23016KT 200V260 9999 FEW033/// BKN039/// BKN045/// ///TCU 25/16 Q1013 BECMG 25012G22KT FEW040 BKN055
Temperature: 25.0°C ( 77°F)
Dewpoint: 16.0°C ( 61°F) [RH = 57%]
Pressure (altimeter):29.91 inches Hg (1013.0 mb)
Winds:from the SW (230 degrees) at 18 MPH (16 knots; 8.2 m/s)
Visibility:6 or more sm (10+ km)
Ceiling:3900 feet AGL
Clouds: few clouds at 3300 feet AGL, broken clouds at 3900 feet AGL, broken clouds at 4500 feet AGL

TAF for:LFJL (Metz/Lorraine Arpt, --, FR) issued at 1100 UTC 20 Jul 2017
Text:TAF LFJL 201100Z 2012/2112 25012G22KT 9999 FEW040 BKN055
Forecast period:1200 to 1800 UTC 20 July 2017
Forecast type:FROM: standard forecast or significant change
Winds:from the WSW (250 degrees) at 14 MPH (12 knots; 6.2 m/s) gusting to 25 MPH (22 knots; 11.3 m/s)
Visibility:6 or more sm (10+ km)
Ceiling:5500 feet AGL
Clouds: few clouds at 4000 feet AGL, broken clouds at 5500 feet AGL
Text:BECMG 2018/2021 VRB04KT
Forecast period:1800 UTC 20 July 2017 to 1200 UTC 21 July 2017
Forecast type:BECOMING: Conditions expected to become as follows by 2100 UTC 20 July 2017
Winds:variable direction winds at 5 MPH (4 knots; 2.1 m/s)
Visibility:6 or more sm (10+ km)
Ceiling:5500 feet AGL
Clouds: few clouds at 4000 feet AGL, broken clouds at 5500 feet AGL